KCNW/CNW METAR and TAF weather

Enter ICAO airport designator
Station Type Date Time Source
KCNW METAR 2019/02/21 04:55 UTC NOAA

KCNW 210455Z 00000KT 10SM SKC 05/04 A3000


Station Type Date Time Source
KCNW Decoded METAR 2019/02/21 04:55 UTC NOAA

Station name not available
Feb 20, 2019 - 11:55 PM EST / 2019.02.21 0455 UTC
Wind: Calm:0
Visibility: 10 mile(s):0
Sky conditions: clear
Temperature: 41 F (5 C)
Dew Point: 39 F (4 C)
Relative Humidity: 93%
Pressure (altimeter): 30 in. Hg (1015 hPa)
ob: KCNW 210455Z 00000KT 10SM SKC 05/04 A3000
cycle: 5

Station Type Date Time Source
KCNW TAF UTC NOAA

Error!


Example: see airport list